createdAt,value
2017-11-06T00:01:15.779Z,19.80
2017-11-06T00:03:43.895Z,21.80
2017-11-06T00:06:12.655Z,21.70
2017-11-06T00:08:41.403Z,19.80
2017-11-06T00:11:09.523Z,21.83
2017-11-06T00:13:38.112Z,21.53
2017-11-06T00:16:06.292Z,19.90
2017-11-06T00:18:34.435Z,22.13
2017-11-06T00:21:02.494Z,23.00
2017-11-06T00:23:31.120Z,21.00
2017-11-06T00:25:59.836Z,19.27
2017-11-06T00:28:29.111Z,21.90
2017-11-06T00:43:54.282Z,20.90
2017-11-06T00:46:22.931Z,20.60
2017-11-06T00:48:51.667Z,20.27
2017-11-06T00:51:19.863Z,22.80
2017-11-06T00:53:48.275Z,22.83
2017-11-06T00:56:17.678Z,21.90
2017-11-06T00:58:47.063Z,23.20
2017-11-06T01:01:15.127Z,22.07
2017-11-06T01:03:43.132Z,23.00
2017-11-06T01:06:11.465Z,22.17
2017-11-06T01:08:39.996Z,23.10
2017-11-06T01:11:09.243Z,22.53
2017-11-06T01:13:37.874Z,21.33
2017-11-06T01:16:07.299Z,23.10
2017-11-06T01:18:35.303Z,21.57
2017-11-06T01:21:03.427Z,21.47
2017-11-06T01:23:32.172Z,20.93
2017-11-06T01:26:01.475Z,21.30
2017-11-06T01:28:30.311Z,23.30
2017-11-06T01:30:58.967Z,21.83
2017-11-06T01:33:28.411Z,22.40
2017-11-06T01:35:56.598Z,22.67
2017-11-06T01:38:24.652Z,21.20
2017-11-06T01:40:53.559Z,23.07
2017-11-06T01:43:21.683Z,21.60
2017-11-06T01:45:50.315Z,21.37
2017-11-06T01:48:18.331Z,23.10
2017-11-06T01:50:46.470Z,23.50
2017-11-06T01:53:14.519Z,22.80
2017-11-06T01:55:43.227Z,24.20
2017-11-06T01:58:11.475Z,23.07
2017-11-06T02:00:40.795Z,22.93
2017-11-06T02:03:09.607Z,22.33
2017-11-06T02:05:37.827Z,23.50
2017-11-06T02:08:05.863Z,23.53
2017-11-06T02:10:34.313Z,24.30
2017-11-06T02:13:03.049Z,24.87
2017-11-06T02:15:31.755Z,21.70
2017-11-06T02:18:01.403Z,23.20
2017-11-06T02:20:29.755Z,23.20
2017-11-06T02:22:58.688Z,23.57
2017-11-06T02:25:27.246Z,23.03
2017-11-06T02:27:56.760Z,23.90
2017-11-06T02:30:25.017Z,22.27
2017-11-06T02:32:53.811Z,24.77
2017-11-06T02:35:22.911Z,24.57
2017-11-06T02:37:51.746Z,25.47
2017-11-06T02:40:20.440Z,24.07
2017-11-06T02:42:48.982Z,24.67
2017-11-06T02:45:17.819Z,22.60
2017-11-06T02:47:45.954Z,22.63
2017-11-06T02:50:14.141Z,22.10
2017-11-06T02:52:43.323Z,23.43
2017-11-06T02:55:11.415Z,23.17
2017-11-06T02:57:39.940Z,24.50
2017-11-06T03:00:08.751Z,22.57
2017-11-06T03:02:37.508Z,26.03
2017-11-06T03:05:05.873Z,23.37
2017-11-06T03:07:33.942Z,23.90
2017-11-06T03:10:01.997Z,24.37
2017-11-06T03:12:30.113Z,23.43
2017-11-06T03:14:59.608Z,23.60
2017-11-06T03:17:27.661Z,22.80
2017-11-06T03:19:56.630Z,22.70
2017-11-06T03:22:25.135Z,22.63
2017-11-06T03:24:53.216Z,24.40
2017-11-06T03:27:21.356Z,22.47
2017-11-06T03:29:50.712Z,21.90
2017-11-06T03:32:18.711Z,24.80
2017-11-06T03:34:47.582Z,23.30
2017-11-06T03:37:15.595Z,21.20
2017-11-06T03:39:43.596Z,21.53
2017-11-06T03:42:11.764Z,20.20
2017-11-06T03:44:39.933Z,21.17
2017-11-06T03:47:07.977Z,19.90
2017-11-06T03:49:36.900Z,19.03
2017-11-06T03:52:04.947Z,20.40
2017-11-06T03:54:33.763Z,20.90
2017-11-06T03:57:01.899Z,20.10
2017-11-06T03:59:30.695Z,20.40
2017-11-06T04:01:59.453Z,20.23
2017-11-06T04:04:27.575Z,21.63
2017-11-06T04:06:55.563Z,19.90
2017-11-06T04:09:23.583Z,18.87
2017-11-06T04:11:51.731Z,20.67
2017-11-06T04:14:19.793Z,19.60
2017-11-06T04:16:47.831Z,17.83
2017-11-06T04:19:15.940Z,18.77
2017-11-06T04:21:44.079Z,19.80
2017-11-06T04:24:13.010Z,19.90
2017-11-06T04:26:41.131Z,19.50
2017-11-06T04:29:09.960Z,20.50
2017-11-06T04:31:37.986Z,21.40
2017-11-06T04:34:09.968Z,18.27
2017-11-06T04:36:38.986Z,18.83
2017-11-06T04:39:07.027Z,17.10
2017-11-06T04:41:35.902Z,16.47
2017-11-06T04:44:03.944Z,15.63
2017-11-06T04:46:32.040Z,16.60
2017-11-06T04:49:00.171Z,15.20
2017-11-06T04:51:28.585Z,14.33
2017-11-06T04:53:57.118Z,15.73
2017-11-06T04:56:25.239Z,14.83
2017-11-06T04:58:53.231Z,15.50
2017-11-06T05:01:21.756Z,14.53
2017-11-06T05:03:50.439Z,15.67
2017-11-06T05:06:19.039Z,15.43
2017-11-06T05:08:47.114Z,15.50
2017-11-06T05:11:15.291Z,15.30
2017-11-06T05:13:43.355Z,14.07
2017-11-06T05:16:11.880Z,14.77
2017-11-06T05:18:40.049Z,14.60
2017-11-06T05:21:08.103Z,11.27
2017-11-06T05:23:36.260Z,11.83
2017-11-06T05:26:04.462Z,11.60
2017-11-06T05:28:33.251Z,13.67
2017-11-06T05:31:01.322Z,13.60
2017-11-06T05:33:29.900Z,12.10
2017-11-06T05:35:58.503Z,13.00
2017-11-06T05:38:27.238Z,13.70
2017-11-06T05:40:56.306Z,11.90
2017-11-06T05:43:24.374Z,11.27
2017-11-06T05:45:52.879Z,11.40
2017-11-06T05:48:22.264Z,13.93
2017-11-06T05:50:50.982Z,11.57
2017-11-06T05:53:20.287Z,11.43
2017-11-06T05:55:49.689Z,11.60
2017-11-06T05:58:18.431Z,11.70
2017-11-06T06:00:47.203Z,11.73
2017-11-06T06:03:15.351Z,12.83
2017-11-06T06:05:44.043Z,12.50
2017-11-06T06:08:12.043Z,12.40
2017-11-06T06:10:40.226Z,12.53
2017-11-06T06:13:08.295Z,11.83
2017-11-06T06:15:36.304Z,13.33
2017-11-06T06:18:05.197Z,12.10
2017-11-06T06:20:35.047Z,13.20
2017-11-06T06:23:03.063Z,12.50
2017-11-06T06:25:31.791Z,11.73
2017-11-06T06:28:00.429Z,11.70
2017-11-06T06:30:28.441Z,13.10
2017-11-06T06:32:57.684Z,12.63
2017-11-06T06:35:26.153Z,12.87
2017-11-06T06:37:54.891Z,12.60
2017-11-06T06:40:23.337Z,12.63
2017-11-06T06:42:51.390Z,13.40
2017-11-06T06:45:19.447Z,11.77
2017-11-06T06:47:47.633Z,12.90
2017-11-06T06:50:15.643Z,12.97
2017-11-06T06:52:43.684Z,12.80
2017-11-06T06:55:11.833Z,14.33
2017-11-06T06:57:40.614Z,11.87
2017-11-06T07:00:09.407Z,12.20
2017-11-06T07:02:38.299Z,12.30
2017-11-06T07:05:07.162Z,12.17
2017-11-06T07:07:35.201Z,12.10
2017-11-06T07:10:03.509Z,12.33
2017-11-06T07:12:31.492Z,13.00
2017-11-06T07:14:59.491Z,12.67
2017-11-06T07:17:28.531Z,12.90
2017-11-06T07:19:56.597Z,13.77
2017-11-06T07:22:24.603Z,13.27
2017-11-06T07:24:52.724Z,14.70
2017-11-06T07:27:20.927Z,14.33
2017-11-06T07:29:48.911Z,13.27
2017-11-06T07:32:17.098Z,13.50
2017-11-06T07:34:45.156Z,14.20
2017-11-06T07:37:13.212Z,13.57
2017-11-06T07:39:41.359Z,15.50
2017-11-06T07:42:09.403Z,14.23
2017-11-06T07:44:38.149Z,14.00
2017-11-06T08:08:32.765Z,15.90
2017-11-06T08:11:01.256Z,17.10
2017-11-06T08:13:29.838Z,16.00
2017-11-06T08:15:58.827Z,15.47
2017-11-06T08:18:26.823Z,15.63
2017-11-06T08:20:55.507Z,15.27
2017-11-06T08:23:23.691Z,15.37
2017-11-06T08:25:52.309Z,14.63
2017-11-06T08:28:20.499Z,14.73
2017-11-06T08:30:49.415Z,15.53
2017-11-06T08:33:17.415Z,15.30
2017-11-06T08:35:46.003Z,14.40
2017-11-06T08:38:14.811Z,15.10
2017-11-06T08:40:43.419Z,14.63
2017-11-06T08:43:12.220Z,14.87
2017-11-06T08:45:41.080Z,14.63
2017-11-06T08:48:09.087Z,15.27
2017-11-06T08:50:38.252Z,15.40
2017-11-06T08:53:07.097Z,14.10
2017-11-06T08:55:35.686Z,15.00
2017-11-06T08:58:03.755Z,14.50
2017-11-06T09:00:31.936Z,14.60
2017-11-06T09:02:59.935Z,15.10
2017-11-06T09:05:28.601Z,14.10
2017-11-06T09:07:57.339Z,13.97
2017-11-06T09:10:26.803Z,15.67
2017-11-06T09:12:54.844Z,13.53
2017-11-06T09:15:22.954Z,14.57
2017-11-06T09:17:51.006Z,14.53
2017-11-06T09:20:19.055Z,14.30
2017-11-06T09:22:48.424Z,13.40
2017-11-06T09:25:16.407Z,13.60
2017-11-06T09:27:46.453Z,13.77
2017-11-06T09:30:15.386Z,14.47
2017-11-06T09:32:43.419Z,14.67
2017-11-06T09:35:11.419Z,14.93
2017-11-06T09:37:40.299Z,15.40
2017-11-06T09:40:09.039Z,14.70
2017-11-06T09:42:37.444Z,14.33
2017-11-06T09:45:06.984Z,14.00
2017-11-06T09:47:34.992Z,13.47
2017-11-06T09:50:03.028Z,14.20
2017-11-06T09:52:31.684Z,13.47
2017-11-06T09:55:01.023Z,15.33
2017-11-06T09:57:29.687Z,13.90
2017-11-06T09:59:58.411Z,14.37
2017-11-06T10:02:26.475Z,14.73
2017-11-06T10:04:54.523Z,14.83
2017-11-06T10:07:22.628Z,14.43
2017-11-06T10:09:50.699Z,13.20
2017-11-06T10:12:18.694Z,14.23
2017-11-06T10:14:46.863Z,14.00
2017-11-06T10:17:15.364Z,14.10
2017-11-06T10:19:44.101Z,13.70
2017-11-06T10:22:12.247Z,13.07
2017-11-06T10:24:40.879Z,13.27
2017-11-06T10:27:09.410Z,13.63
2017-11-06T10:29:38.944Z,12.90
2017-11-06T10:32:07.096Z,11.97
2017-11-06T10:34:35.899Z,12.10
2017-11-06T10:37:04.557Z,11.60
2017-11-06T10:39:33.814Z,10.67
2017-11-06T10:42:02.411Z,12.57
2017-11-06T10:44:31.287Z,11.40
2017-11-06T10:46:59.316Z,11.30
2017-11-06T10:49:28.693Z,11.90
2017-11-06T10:51:57.475Z,11.80
2017-11-06T10:54:26.151Z,11.53
2017-11-06T10:56:54.648Z,12.90
2017-11-06T10:59:22.831Z,11.83
2017-11-06T11:01:51.587Z,11.90
2017-11-06T11:04:19.607Z,11.60
2017-11-06T11:06:48.467Z,12.53
2017-11-06T11:09:16.995Z,13.43
2017-11-06T11:11:46.576Z,13.97
2017-11-06T11:14:15.219Z,14.20
2017-11-06T11:16:43.776Z,12.73
2017-11-06T11:19:12.344Z,12.90
2017-11-06T11:21:41.291Z,14.57
2017-11-06T11:24:09.975Z,14.87
2017-11-06T11:26:39.391Z,13.27
2017-11-06T11:29:08.239Z,13.40
2017-11-06T11:31:36.243Z,13.60
2017-11-06T11:34:04.480Z,14.23
2017-11-06T11:36:33.446Z,14.97
2017-11-06T11:39:01.476Z,14.33
2017-11-06T11:41:30.348Z,15.40
2017-11-06T11:43:58.991Z,16.93
2017-11-06T11:46:27.187Z,19.97
2017-11-06T11:48:55.971Z,18.97
2017-11-06T11:51:24.831Z,19.77
2017-11-06T11:53:52.827Z,19.40
2017-11-06T11:56:20.822Z,19.10
2017-11-06T11:58:48.991Z,18.77
2017-11-06T12:01:17.783Z,19.00
2017-11-06T12:03:46.558Z,18.73
2017-11-06T12:06:16.423Z,17.87
2017-11-06T12:08:44.485Z,17.07
2017-11-06T12:11:12.475Z,15.90
2017-11-06T12:13:40.655Z,14.90
2017-11-06T12:16:09.208Z,16.23
2017-11-06T12:18:38.007Z,15.50
2017-11-06T12:21:06.217Z,15.80
2017-11-06T12:23:34.223Z,16.37
2017-11-06T12:26:03.566Z,16.70
2017-11-06T12:28:31.680Z,16.53
2017-11-06T12:30:59.735Z,17.03
2017-11-06T12:33:27.723Z,16.87
2017-11-06T12:35:55.963Z,17.90
2017-11-06T12:38:23.967Z,17.80
2017-11-06T12:40:51.989Z,17.80
2017-11-06T12:43:20.168Z,17.80
2017-11-06T12:45:48.222Z,18.77
2017-11-06T12:48:16.955Z,18.27
2017-11-06T12:50:45.083Z,18.87
2017-11-06T12:53:13.866Z,17.63
2017-11-06T12:55:42.655Z,18.10
2017-11-06T12:58:11.587Z,20.07
2017-11-06T13:00:39.727Z,19.23
2017-11-06T13:03:08.655Z,18.97
2017-11-06T13:05:36.767Z,18.50
2017-11-06T13:08:04.767Z,18.27
2017-11-06T13:10:33.504Z,19.37
2017-11-06T13:13:01.671Z,19.27
2017-11-06T13:15:29.679Z,20.00
2017-11-06T13:17:57.735Z,20.13
2017-11-06T13:20:25.859Z,19.60
2017-11-06T13:22:53.918Z,17.70
2017-11-06T13:25:22.672Z,18.50
2017-11-06T13:27:50.819Z,19.07
2017-11-06T13:30:18.832Z,18.53
2017-11-06T13:32:46.904Z,19.53
2017-11-06T13:35:15.067Z,18.00
2017-11-06T13:37:43.263Z,18.63
2017-11-06T13:40:12.012Z,17.63
2017-11-06T13:42:40.123Z,17.20
2017-11-06T13:45:08.911Z,18.27
2017-11-06T13:47:36.959Z,18.10
2017-11-06T13:50:05.131Z,18.23
2017-11-06T13:52:33.120Z,19.33
2017-11-06T13:55:01.115Z,17.77
2017-11-06T13:57:30.035Z,17.20
2017-11-06T13:59:58.031Z,17.63
2017-11-06T14:02:26.103Z,16.27
2017-11-06T14:04:54.270Z,14.47
2017-11-06T14:07:22.409Z,16.27
2017-11-06T14:09:51.177Z,15.60
2017-11-06T14:12:20.131Z,15.93
2017-11-06T14:14:48.180Z,14.13
2017-11-06T14:17:16.635Z,14.20
2017-11-06T14:19:46.031Z,14.27
2017-11-06T14:22:14.839Z,14.43
2017-11-06T14:24:43.635Z,12.70
2017-11-06T14:27:11.761Z,12.23
2017-11-06T14:29:40.785Z,13.77
2017-11-06T14:32:09.515Z,12.03
2017-11-06T14:34:38.160Z,13.03
2017-11-06T14:37:07.607Z,12.07
2017-11-06T14:39:35.816Z,11.80
2017-11-06T14:42:04.148Z,12.90
2017-11-06T14:44:32.612Z,11.83
2017-11-06T14:47:02.888Z,11.80
2017-11-06T14:49:31.658Z,11.23
2017-11-06T14:51:59.651Z,12.53
2017-11-06T14:54:27.674Z,12.83
2017-11-06T14:56:55.809Z,11.63
2017-11-06T14:59:24.166Z,12.23
2017-11-06T15:01:52.392Z,12.13
2017-11-06T15:04:21.512Z,11.80
2017-11-06T15:06:49.528Z,11.37
2017-11-06T15:09:17.529Z,11.73
2017-11-06T15:11:46.538Z,11.53
2017-11-06T15:14:15.208Z,12.23
2017-11-06T15:16:44.696Z,13.20
2017-11-06T15:19:13.406Z,12.60
2017-11-06T15:21:42.653Z,13.97
2017-11-06T15:24:10.894Z,12.57
2017-11-06T15:26:39.880Z,13.00
2017-11-06T15:29:08.657Z,13.60
2017-11-06T15:31:38.025Z,12.97
2017-11-06T15:34:06.789Z,13.97
2017-11-06T15:36:49.173Z,13.20
2017-11-06T15:39:18.035Z,13.07
2017-11-06T15:41:46.759Z,12.50
2017-11-06T15:44:15.461Z,13.83
2017-11-06T15:46:44.366Z,14.00
2017-11-06T15:49:12.870Z,13.63
2017-11-06T15:51:41.457Z,13.33
2017-11-06T15:54:10.201Z,13.17
2017-11-06T15:56:38.187Z,13.47
2017-11-06T15:59:06.191Z,13.30
2017-11-06T16:01:34.343Z,12.93
2017-11-06T16:04:02.407Z,12.30
2017-11-06T16:06:30.932Z,13.73
2017-11-06T16:08:59.942Z,13.80
2017-11-06T16:11:28.693Z,12.90
2017-11-06T16:13:56.691Z,13.00
2017-11-06T16:16:25.416Z,14.07
2017-11-06T16:18:54.132Z,13.50
2017-11-06T16:21:22.669Z,13.17
2017-11-06T16:23:51.951Z,13.50
2017-11-06T16:26:19.987Z,13.70
2017-11-06T16:28:48.042Z,12.87
2017-11-06T16:31:16.281Z,13.07
2017-11-06T16:33:45.637Z,14.50
2017-11-06T16:36:14.384Z,13.80
2017-11-06T16:38:44.035Z,12.70
2017-11-06T16:41:12.138Z,13.53
2017-11-06T16:43:40.383Z,13.27
2017-11-06T16:46:08.618Z,12.67
2017-11-06T16:48:38.172Z,13.50
2017-11-06T16:51:07.074Z,12.80
2017-11-06T16:53:35.664Z,12.93
2017-11-06T16:56:03.716Z,14.90
2017-11-06T16:58:31.831Z,17.00
2017-11-06T17:01:00.783Z,16.20
2017-11-06T17:03:29.631Z,15.37
2017-11-06T17:05:58.927Z,15.20
2017-11-06T17:08:27.880Z,14.63
2017-11-06T17:10:55.932Z,16.13
2017-11-06T17:13:24.042Z,15.70
2017-11-06T17:15:52.265Z,15.57
2017-11-06T17:18:20.871Z,15.20
2017-11-06T17:20:49.724Z,13.37
2017-11-06T17:23:19.227Z,13.47
2017-11-06T17:25:48.469Z,13.10
2017-11-06T17:28:16.583Z,13.60
2017-11-06T17:30:44.962Z,13.27
2017-11-06T17:33:13.619Z,13.57
2017-11-06T17:35:42.470Z,12.97
2017-11-06T17:38:11.408Z,13.53
2017-11-06T17:40:39.931Z,13.87
2017-11-06T17:43:08.055Z,13.70
2017-11-06T17:45:36.439Z,12.97
2017-11-06T17:48:05.068Z,14.13
2017-11-06T17:50:33.744Z,13.00
2017-11-06T17:53:01.915Z,13.80
2017-11-06T17:55:30.012Z,13.30
2017-11-06T17:57:58.857Z,13.47
2017-11-06T18:00:27.095Z,13.80
2017-11-06T18:02:55.931Z,13.20
2017-11-06T18:05:24.551Z,14.43
2017-11-06T18:07:54.188Z,14.30
2017-11-06T18:10:23.066Z,14.70
2017-11-06T18:12:51.951Z,14.53
2017-11-06T18:15:20.935Z,14.30
2017-11-06T18:17:48.999Z,15.20
2017-11-06T18:20:17.708Z,13.23
2017-11-06T18:22:47.211Z,13.90
2017-11-06T18:25:16.452Z,14.07
2017-11-06T18:27:44.516Z,13.83
2017-11-06T18:30:12.761Z,13.93
2017-11-06T18:32:40.874Z,14.37
2017-11-06T18:35:09.441Z,15.17
2017-11-06T18:37:37.659Z,14.83
2017-11-06T18:40:06.435Z,14.20
2017-11-06T18:42:35.135Z,14.63
2017-11-06T18:45:03.352Z,14.60
2017-11-06T18:47:32.428Z,16.03
2017-11-06T18:50:00.847Z,14.50
2017-11-06T18:52:29.131Z,14.00
2017-11-06T18:54:58.199Z,13.80
2017-11-06T18:57:27.518Z,13.73
2017-11-06T18:59:55.700Z,13.77
2017-11-06T19:02:23.759Z,15.37
2017-11-06T19:04:53.236Z,14.43
2017-11-06T19:07:22.095Z,13.97
2017-11-06T19:09:51.755Z,14.50
2017-11-06T19:12:21.038Z,14.87
2017-11-06T19:14:49.215Z,15.13
2017-11-06T19:17:17.271Z,14.73
2017-11-06T19:19:45.415Z,14.23
2017-11-06T19:22:14.164Z,13.37
2017-11-06T19:24:43.555Z,15.13
2017-11-06T19:27:11.659Z,14.80
2017-11-06T19:29:41.287Z,14.10
2017-11-06T19:32:09.403Z,14.30
2017-11-06T19:34:37.511Z,14.67
2017-11-06T19:37:07.035Z,16.37
2017-11-06T19:39:35.626Z,14.23
2017-11-06T19:42:04.469Z,15.53
2017-11-06T19:44:33.430Z,14.67
2017-11-06T19:47:01.537Z,16.93
2017-11-06T19:49:29.779Z,16.43
2017-11-06T19:51:58.671Z,15.80
2017-11-06T19:54:27.366Z,15.67
2017-11-06T19:56:55.927Z,14.10
2017-11-06T20:22:13.194Z,16.07
2017-11-06T20:24:42.622Z,17.10
2017-11-06T20:27:11.318Z,15.70
2017-11-06T20:29:40.314Z,17.80
2017-11-06T20:32:08.458Z,15.70
2017-11-06T20:34:37.324Z,15.67
2017-11-06T20:37:05.525Z,15.40
2017-11-06T20:39:34.974Z,16.77
2017-11-06T20:42:04.315Z,16.27
2017-11-06T20:44:33.591Z,15.60
2017-11-06T20:47:01.959Z,15.30
2017-11-06T20:49:30.405Z,18.00
2017-11-06T20:51:59.379Z,17.00
2017-11-06T20:54:28.179Z,16.73
2017-11-06T20:56:57.599Z,16.40
2017-11-06T20:59:26.417Z,14.83
2017-11-06T21:01:54.527Z,15.93
2017-11-06T21:04:22.708Z,14.87
2017-11-06T21:06:52.317Z,15.70
2017-11-06T21:09:21.126Z,16.50
2017-11-06T21:11:49.258Z,16.27
2017-11-06T21:14:18.119Z,16.50
2017-11-06T21:16:46.864Z,15.30
2017-11-06T21:19:15.694Z,16.53
2017-11-06T21:21:43.929Z,15.63
2017-11-06T21:24:13.207Z,16.87
2017-11-06T21:26:41.808Z,15.77
2017-11-06T21:29:10.843Z,14.77
2017-11-06T21:31:39.488Z,15.60
2017-11-06T21:34:08.369Z,17.50
2017-11-06T21:36:36.587Z,17.20
2017-11-06T21:39:05.498Z,15.27
2017-11-06T21:41:34.290Z,15.73
2017-11-06T21:44:03.287Z,15.67
2017-11-06T21:46:31.903Z,15.50
2017-11-06T21:49:00.039Z,16.60
2017-11-06T21:51:28.398Z,16.43
2017-11-06T21:53:57.786Z,17.30
2017-11-06T21:56:27.190Z,16.60
2017-11-06T21:58:56.551Z,17.37
2017-11-06T22:01:25.071Z,15.70
2017-11-06T22:03:53.135Z,17.00
2017-11-06T22:06:21.304Z,18.47
2017-11-06T22:08:49.964Z,15.80
2017-11-06T22:11:18.491Z,17.23
2017-11-06T22:13:48.206Z,17.23
2017-11-06T22:16:17.011Z,16.33
2017-11-06T22:18:46.231Z,16.40
2017-11-06T22:21:14.395Z,18.47
2017-11-06T22:23:43.095Z,15.43
2017-11-06T22:26:11.763Z,16.33
2017-11-06T22:28:40.823Z,15.50
2017-11-06T22:31:10.139Z,16.23
2017-11-06T22:33:39.426Z,16.47
2017-11-06T22:36:07.650Z,15.73
2017-11-06T22:38:35.755Z,15.37
2017-11-06T22:41:04.356Z,15.90
2017-11-06T22:43:32.587Z,17.53
2017-11-06T22:46:00.643Z,15.70
2017-11-06T22:48:29.431Z,16.67
2017-11-06T22:50:58.394Z,16.03
2017-11-06T22:53:26.584Z,16.40
2017-11-06T22:55:54.635Z,15.77
2017-11-06T22:58:23.391Z,15.97
2017-11-06T23:00:52.031Z,17.50
2017-11-06T23:03:20.651Z,14.13
2017-11-06T23:05:48.870Z,16.90
2017-11-06T23:08:16.915Z,15.90
2017-11-06T23:10:45.491Z,16.40
2017-11-06T23:13:14.327Z,15.93
2017-11-06T23:15:42.917Z,17.63
2017-11-06T23:18:11.767Z,16.00
2017-11-06T23:20:39.946Z,15.10
2017-11-06T23:23:08.065Z,15.60
2017-11-06T23:25:36.907Z,15.47
2017-11-06T23:28:05.587Z,15.13
2017-11-06T23:30:34.131Z,16.07
2017-11-06T23:33:03.479Z,15.40
2017-11-06T23:35:31.651Z,15.57
2017-11-06T23:37:59.762Z,16.10
2017-11-06T23:40:27.867Z,15.43
2017-11-06T23:42:57.544Z,14.60
2017-11-06T23:45:26.491Z,16.63
2017-11-06T23:47:55.403Z,15.83
2017-11-06T23:50:23.763Z,15.90
2017-11-06T23:52:51.875Z,17.77
2017-11-06T23:55:20.251Z,17.33
2017-11-06T23:57:49.111Z,15.73
